sensor_id;sensor_type;location;lat;lon;timestamp;temperature;humidity
12460;DHT22;6295;49.452;8.466;2022-07-29T00:02:09;20.20;99.90
12460;DHT22;6295;49.452;8.466;2022-07-29T00:06:11;20.10;99.90
12460;DHT22;6295;49.452;8.466;2022-07-29T00:10:13;20.00;99.90
12460;DHT22;6295;49.452;8.466;2022-07-29T00:18:19;19.90;99.90
12460;DHT22;6295;49.452;8.466;2022-07-29T00:30:28;19.70;99.90
12460;DHT22;6295;49.452;8.466;2022-07-29T00:34:31;19.60;99.90
12460;DHT22;6295;49.452;8.466;2022-07-29T00:42:54;19.60;99.90
12460;DHT22;6295;49.452;8.466;2022-07-29T00:46:56;19.60;99.90
12460;DHT22;6295;49.452;8.466;2022-07-29T00:51:01;19.60;99.90
12460;DHT22;6295;49.452;8.466;2022-07-29T00:59:07;19.40;99.90
12460;DHT22;6295;49.452;8.466;2022-07-29T01:03:09;19.40;99.90
12460;DHT22;6295;49.452;8.466;2022-07-29T01:07:13;19.30;99.90
12460;DHT22;6295;49.452;8.466;2022-07-29T01:11:16;19.40;99.90
12460;DHT22;6295;49.452;8.466;2022-07-29T01:19:39;19.30;99.90
12460;DHT22;6295;49.452;8.466;2022-07-29T01:23:59;19.20;99.90
12460;DHT22;6295;49.452;8.466;2022-07-29T01:28:18;19.20;99.90
12460;DHT22;6295;49.452;8.466;2022-07-29T01:32:26;19.10;99.90
12460;DHT22;6295;49.452;8.466;2022-07-29T01:36:34;19.10;99.90
12460;DHT22;6295;49.452;8.466;2022-07-29T01:44:48;19.00;99.90
12460;DHT22;6295;49.452;8.466;2022-07-29T01:53:00;19.00;99.90
12460;DHT22;6295;49.452;8.466;2022-07-29T02:01:08;18.90;99.90
12460;DHT22;6295;49.452;8.466;2022-07-29T02:05:15;18.80;99.90
12460;DHT22;6295;49.452;8.466;2022-07-29T02:09:18;18.80;99.90
12460;DHT22;6295;49.452;8.466;2022-07-29T02:13:23;18.80;99.90
12460;DHT22;6295;49.452;8.466;2022-07-29T02:25:37;18.60;99.90
12460;DHT22;6295;49.452;8.466;2022-07-29T02:33:44;18.70;99.90
12460;DHT22;6295;49.452;8.466;2022-07-29T02:37:49;18.60;99.90
12460;DHT22;6295;49.452;8.466;2022-07-29T02:42:09;18.60;99.90
12460;DHT22;6295;49.452;8.466;2022-07-29T02:46:16;18.60;99.90
12460;DHT22;6295;49.452;8.466;2022-07-29T02:50:26;18.60;99.90
12460;DHT22;6295;49.452;8.466;2022-07-29T02:54:37;18.50;99.90
12460;DHT22;6295;49.452;8.466;2022-07-29T02:58:44;18.50;99.90
12460;DHT22;6295;49.452;8.466;2022-07-29T03:02:52;18.50;99.90
12460;DHT22;6295;49.452;8.466;2022-07-29T03:06:59;18.40;99.90
12460;DHT22;6295;49.452;8.466;2022-07-29T03:11:03;18.40;99.90
12460;DHT22;6295;49.452;8.466;2022-07-29T03:15:06;18.40;99.90
12460;DHT22;6295;49.452;8.466;2022-07-29T03:23:11;18.30;99.90
12460;DHT22;6295;49.452;8.466;2022-07-29T03:27:15;18.30;99.90
12460;DHT22;6295;49.452;8.466;2022-07-29T03:31:17;18.20;99.90
12460;DHT22;6295;49.452;8.466;2022-07-29T03:35:19;18.20;99.90
12460;DHT22;6295;49.452;8.466;2022-07-29T03:39:24;18.10;99.90
12460;DHT22;6295;49.452;8.466;2022-07-29T03:43:31;18.10;99.90
12460;DHT22;6295;49.452;8.466;2022-07-29T03:47:35;18.00;99.90
12460;DHT22;6295;49.452;8.466;2022-07-29T03:55:45;18.00;99.90
12460;DHT22;6295;49.452;8.466;2022-07-29T03:59:50;17.90;99.90
12460;DHT22;6295;49.452;8.466;2022-07-29T04:03:53;17.90;99.90
12460;DHT22;6295;49.452;8.466;2022-07-29T04:07:55;17.90;99.90
12460;DHT22;6295;49.452;8.466;2022-07-29T04:16:01;17.90;99.90
12460;DHT22;6295;49.452;8.466;2022-07-29T04:24:07;17.80;99.90
12460;DHT22;6295;49.452;8.466;2022-07-29T04:28:10;17.80;99.90
12460;DHT22;6295;49.452;8.466;2022-07-29T04:32:13;17.80;99.90
12460;DHT22;6295;49.452;8.466;2022-07-29T04:36:16;17.80;99.90
12460;DHT22;6295;49.452;8.466;2022-07-29T04:40:18;17.90;99.90
12460;DHT22;6295;49.452;8.466;2022-07-29T04:44:21;17.90;99.90
12460;DHT22;6295;49.452;8.466;2022-07-29T04:48:25;17.80;99.90
12460;DHT22;6295;49.452;8.466;2022-07-29T04:52:27;17.90;99.90
12460;DHT22;6295;49.452;8.466;2022-07-29T04:56:29;17.90;99.90
12460;DHT22;6295;49.452;8.466;2022-07-29T05:04:35;18.00;99.90
12460;DHT22;6295;49.452;8.466;2022-07-29T05:20:46;18.20;99.90
12460;DHT22;6295;49.452;8.466;2022-07-29T05:24:49;18.20;99.90
12460;DHT22;6295;49.452;8.466;2022-07-29T05:28:51;18.40;99.90
12460;DHT22;6295;49.452;8.466;2022-07-29T05:32:54;18.50;99.90
12460;DHT22;6295;49.452;8.466;2022-07-29T05:36:58;18.60;99.90
12460;DHT22;6295;49.452;8.466;2022-07-29T05:41:00;18.70;99.90
12460;DHT22;6295;49.452;8.466;2022-07-29T05:45:03;18.80;99.90
12460;DHT22;6295;49.452;8.466;2022-07-29T05:49:05;18.90;99.90
12460;DHT22;6295;49.452;8.466;2022-07-29T05:57:15;19.20;99.90
12460;DHT22;6295;49.452;8.466;2022-07-29T06:01:17;19.30;99.90
12460;DHT22;6295;49.452;8.466;2022-07-29T06:05:20;19.50;99.90
12460;DHT22;6295;49.452;8.466;2022-07-29T06:09:24;19.60;99.90
12460;DHT22;6295;49.452;8.466;2022-07-29T06:13:26;19.80;99.90
12460;DHT22;6295;49.452;8.466;2022-07-29T06:17:28;20.00;99.90
12460;DHT22;6295;49.452;8.466;2022-07-29T06:21:30;20.10;99.90
12460;DHT22;6295;49.452;8.466;2022-07-29T06:25:34;20.30;99.90
12460;DHT22;6295;49.452;8.466;2022-07-29T06:37:42;20.50;99.90
12460;DHT22;6295;49.452;8.466;2022-07-29T06:41:48;20.70;99.90
12460;DHT22;6295;49.452;8.466;2022-07-29T06:45:51;20.80;99.90
12460;DHT22;6295;49.452;8.466;2022-07-29T06:53:55;21.10;99.90
12460;DHT22;6295;49.452;8.466;2022-07-29T06:57:59;21.30;99.90
12460;DHT22;6295;49.452;8.466;2022-07-29T07:02:02;21.40;99.90
12460;DHT22;6295;49.452;8.466;2022-07-29T07:06:04;21.50;99.90
12460;DHT22;6295;49.452;8.466;2022-07-29T07:14:10;21.70;99.90
12460;DHT22;6295;49.452;8.466;2022-07-29T07:18:13;21.80;99.90
12460;DHT22;6295;49.452;8.466;2022-07-29T07:22:15;21.90;99.90
12460;DHT22;6295;49.452;8.466;2022-07-29T07:26:17;22.10;99.90
12460;DHT22;6295;49.452;8.466;2022-07-29T07:34:23;22.20;99.90
12460;DHT22;6295;49.452;8.466;2022-07-29T07:38:25;22.30;99.90
12460;DHT22;6295;49.452;8.466;2022-07-29T07:46:31;22.50;99.90
12460;DHT22;6295;49.452;8.466;2022-07-29T07:50:34;22.50;99.90
12460;DHT22;6295;49.452;8.466;2022-07-29T07:58:38;22.50;99.90
12460;DHT22;6295;49.452;8.466;2022-07-29T08:02:43;22.50;99.90
12460;DHT22;6295;49.452;8.466;2022-07-29T08:06:46;22.50;99.90
12460;DHT22;6295;49.452;8.466;2022-07-29T08:10:50;22.50;99.90
12460;DHT22;6295;49.452;8.466;2022-07-29T08:14:56;22.50;99.90
12460;DHT22;6295;49.452;8.466;2022-07-29T08:23:03;22.40;99.90
12460;DHT22;6295;49.452;8.466;2022-07-29T08:27:07;22.60;99.90
12460;DHT22;6295;49.452;8.466;2022-07-29T08:31:09;22.80;99.90
12460;DHT22;6295;49.452;8.466;2022-07-29T08:35:12;22.90;99.90
12460;DHT22;6295;49.452;8.466;2022-07-29T08:39:14;23.00;99.90
12460;DHT22;6295;49.452;8.466;2022-07-29T08:43:17;23.20;99.90
12460;DHT22;6295;49.452;8.466;2022-07-29T08:47:19;23.30;99.90
12460;DHT22;6295;49.452;8.466;2022-07-29T08:51:22;23.30;99.90
12460;DHT22;6295;49.452;8.466;2022-07-29T08:59:30;23.60;99.90
12460;DHT22;6295;49.452;8.466;2022-07-29T09:03:37;23.70;99.90
12460;DHT22;6295;49.452;8.466;2022-07-29T09:07:42;23.70;99.90
12460;DHT22;6295;49.452;8.466;2022-07-29T09:11:45;23.70;99.90
12460;DHT22;6295;49.452;8.466;2022-07-29T09:15:47;23.80;99.90
12460;DHT22;6295;49.452;8.466;2022-07-29T09:19:50;23.90;99.90
12460;DHT22;6295;49.452;8.466;2022-07-29T09:28:07;24.00;99.90
12460;DHT22;6295;49.452;8.466;2022-07-29T09:32:10;24.10;99.90
12460;DHT22;6295;49.452;8.466;2022-07-29T09:36:12;24.10;99.90
12460;DHT22;6295;49.452;8.466;2022-07-29T09:40:18;24.30;99.90
12460;DHT22;6295;49.452;8.466;2022-07-29T09:44:23;24.50;99.90
12460;DHT22;6295;49.452;8.466;2022-07-29T09:48:26;24.60;99.90
12460;DHT22;6295;49.452;8.466;2022-07-29T09:52:30;24.80;99.90
12460;DHT22;6295;49.452;8.466;2022-07-29T09:56:41;24.90;99.90
12460;DHT22;6295;49.452;8.466;2022-07-29T10:00:45;25.10;99.90
12460;DHT22;6295;49.452;8.466;2022-07-29T10:04:47;25.30;99.90
12460;DHT22;6295;49.452;8.466;2022-07-29T10:08:50;25.40;99.90
12460;DHT22;6295;49.452;8.466;2022-07-29T10:12:55;25.50;99.90
12460;DHT22;6295;49.452;8.466;2022-07-29T10:16:59;25.50;99.90
12460;DHT22;6295;49.452;8.466;2022-07-29T10:21:01;25.50;99.90
12460;DHT22;6295;49.452;8.466;2022-07-29T10:25:04;25.40;99.90
12460;DHT22;6295;49.452;8.466;2022-07-29T10:29:08;25.40;99.90
12460;DHT22;6295;49.452;8.466;2022-07-29T10:33:25;25.40;99.90
12460;DHT22;6295;49.452;8.466;2022-07-29T10:37:45;25.50;99.90
12460;DHT22;6295;49.452;8.466;2022-07-29T10:42:11;25.50;99.90
12460;DHT22;6295;49.452;8.466;2022-07-29T10:46:18;25.50;99.90
12460;DHT22;6295;49.452;8.466;2022-07-29T10:50:21;25.50;99.90
12460;DHT22;6295;49.452;8.466;2022-07-29T10:54:42;25.70;99.90
12460;DHT22;6295;49.452;8.466;2022-07-29T10:59:23;25.90;99.90
12460;DHT22;6295;49.452;8.466;2022-07-29T11:03:47;26.20;99.90
12460;DHT22;6295;49.452;8.466;2022-07-29T11:08:18;26.40;99.90
12460;DHT22;6295;49.452;8.466;2022-07-29T11:12:46;26.40;99.90
12460;DHT22;6295;49.452;8.466;2022-07-29T11:17:03;26.40;99.90
12460;DHT22;6295;49.452;8.466;2022-07-29T11:21:36;26.40;99.90
12460;DHT22;6295;49.452;8.466;2022-07-29T11:25:38;26.40;99.90
12460;DHT22;6295;49.452;8.466;2022-07-29T11:29:49;26.40;99.90
12460;DHT22;6295;49.452;8.466;2022-07-29T11:33:53;26.50;99.90
12460;DHT22;6295;49.452;8.466;2022-07-29T11:38:24;26.50;99.00
12460;DHT22;6295;49.452;8.466;2022-07-29T11:42:43;26.60;98.90
12460;DHT22;6295;49.452;8.466;2022-07-29T11:46:47;26.80;99.00
12460;DHT22;6295;49.452;8.466;2022-07-29T11:50:50;27.00;99.50
12460;DHT22;6295;49.452;8.466;2022-07-29T11:54:56;27.10;98.80
12460;DHT22;6295;49.452;8.466;2022-07-29T11:59:03;27.20;97.10
12460;DHT22;6295;49.452;8.466;2022-07-29T12:03:10;27.20;97.10
12460;DHT22;6295;49.452;8.466;2022-07-29T12:23:29;27.10;95.80
12460;DHT22;6295;49.452;8.466;2022-07-29T12:27:33;27.20;95.60
12460;DHT22;6295;49.452;8.466;2022-07-29T12:31:35;27.30;95.90
12460;DHT22;6295;49.452;8.466;2022-07-29T12:43:53;27.80;93.50
12460;DHT22;6295;49.452;8.466;2022-07-29T12:47:56;27.80;93.00
12460;DHT22;6295;49.452;8.466;2022-07-29T12:51:58;27.80;93.10
12460;DHT22;6295;49.452;8.466;2022-07-29T12:56:03;27.90;93.50
12460;DHT22;6295;49.452;8.466;2022-07-29T13:00:09;27.90;93.10
12460;DHT22;6295;49.452;8.466;2022-07-29T13:04:24;27.80;93.60
12460;DHT22;6295;49.452;8.466;2022-07-29T13:08:26;27.80;93.80
12460;DHT22;6295;49.452;8.466;2022-07-29T13:12:29;27.80;94.10
12460;DHT22;6295;49.452;8.466;2022-07-29T13:32:53;28.00;92.60
12460;DHT22;6295;49.452;8.466;2022-07-29T13:36:56;28.00;92.90
12460;DHT22;6295;49.452;8.466;2022-07-29T13:40:59;27.90;92.90
12460;DHT22;6295;49.452;8.466;2022-07-29T13:53:13;27.90;92.70
12460;DHT22;6295;49.452;8.466;2022-07-29T14:01:17;28.20;92.80
12460;DHT22;6295;49.452;8.466;2022-07-29T14:05:21;28.30;92.70
12460;DHT22;6295;49.452;8.466;2022-07-29T14:09:23;28.30;91.40
12460;DHT22;6295;49.452;8.466;2022-07-29T14:21:33;28.40;90.70
12460;DHT22;6295;49.452;8.466;2022-07-29T14:25:35;28.40;90.80
12460;DHT22;6295;49.452;8.466;2022-07-29T14:29:37;28.50;90.20
12460;DHT22;6295;49.452;8.466;2022-07-29T14:33:40;28.40;90.00
12460;DHT22;6295;49.452;8.466;2022-07-29T14:37:43;28.50;90.10
12460;DHT22;6295;49.452;8.466;2022-07-29T14:41:46;28.50;89.50
12460;DHT22;6295;49.452;8.466;2022-07-29T14:45:49;28.60;87.30
12460;DHT22;6295;49.452;8.466;2022-07-29T14:49:52;28.60;88.30
12460;DHT22;6295;49.452;8.466;2022-07-29T14:53:58;28.70;89.80
12460;DHT22;6295;49.452;8.466;2022-07-29T14:58:01;28.80;90.00
12460;DHT22;6295;49.452;8.466;2022-07-29T15:02:04;28.70;87.80
12460;DHT22;6295;49.452;8.466;2022-07-29T15:10:09;28.70;85.40
12460;DHT22;6295;49.452;8.466;2022-07-29T15:14:12;28.60;85.60
12460;DHT22;6295;49.452;8.466;2022-07-29T15:22:18;28.60;86.60
12460;DHT22;6295;49.452;8.466;2022-07-29T15:26:21;28.70;86.90
12460;DHT22;6295;49.452;8.466;2022-07-29T15:30:23;28.70;86.70
12460;DHT22;6295;49.452;8.466;2022-07-29T15:38:28;28.80;86.40
12460;DHT22;6295;49.452;8.466;2022-07-29T15:42:32;28.80;86.00
12460;DHT22;6295;49.452;8.466;2022-07-29T15:46:36;28.70;86.70
12460;DHT22;6295;49.452;8.466;2022-07-29T15:50:56;28.60;85.60
12460;DHT22;6295;49.452;8.466;2022-07-29T15:54:58;28.60;84.80
12460;DHT22;6295;49.452;8.466;2022-07-29T15:59:04;28.60;84.60
12460;DHT22;6295;49.452;8.466;2022-07-29T16:03:06;28.50;84.30
12460;DHT22;6295;49.452;8.466;2022-07-29T16:07:08;28.50;84.30
12460;DHT22;6295;49.452;8.466;2022-07-29T16:15:14;28.50;85.20
12460;DHT22;6295;49.452;8.466;2022-07-29T16:19:16;28.40;82.30
12460;DHT22;6295;49.452;8.466;2022-07-29T16:27:21;28.80;83.50
12460;DHT22;6295;49.452;8.466;2022-07-29T16:31:29;29.10;79.80
12460;DHT22;6295;49.452;8.466;2022-07-29T16:35:32;29.30;76.50
12460;DHT22;6295;49.452;8.466;2022-07-29T16:43:42;29.30;76.40
12460;DHT22;6295;49.452;8.466;2022-07-29T16:47:46;29.30;75.50
12460;DHT22;6295;49.452;8.466;2022-07-29T16:51:48;29.30;74.90
12460;DHT22;6295;49.452;8.466;2022-07-29T16:55:50;29.50;75.50
12460;DHT22;6295;49.452;8.466;2022-07-29T16:59:52;29.70;73.20
12460;DHT22;6295;49.452;8.466;2022-07-29T17:03:56;29.80;72.00
12460;DHT22;6295;49.452;8.466;2022-07-29T17:08:07;30.00;71.00
12460;DHT22;6295;49.452;8.466;2022-07-29T17:12:09;30.10;68.90
12460;DHT22;6295;49.452;8.466;2022-07-29T17:16:12;30.10;68.50
12460;DHT22;6295;49.452;8.466;2022-07-29T17:20:15;30.20;67.80
12460;DHT22;6295;49.452;8.466;2022-07-29T17:24:18;30.20;67.90
12460;DHT22;6295;49.452;8.466;2022-07-29T17:28:21;30.20;67.20
12460;DHT22;6295;49.452;8.466;2022-07-29T17:32:24;30.10;66.30
12460;DHT22;6295;49.452;8.466;2022-07-29T17:36:28;30.00;66.50
12460;DHT22;6295;49.452;8.466;2022-07-29T17:40:31;30.00;66.40
12460;DHT22;6295;49.452;8.466;2022-07-29T17:48:40;29.70;65.50
12460;DHT22;6295;49.452;8.466;2022-07-29T17:52:43;29.40;70.30
12460;DHT22;6295;49.452;8.466;2022-07-29T17:56:46;29.10;74.30
12460;DHT22;6295;49.452;8.466;2022-07-29T18:00:48;28.80;77.80
12460;DHT22;6295;49.452;8.466;2022-07-29T18:04:52;28.60;79.60
12460;DHT22;6295;49.452;8.466;2022-07-29T18:13:00;28.30;81.10
12460;DHT22;6295;49.452;8.466;2022-07-29T18:17:03;28.00;82.40
12460;DHT22;6295;49.452;8.466;2022-07-29T18:29:12;27.50;85.60
12460;DHT22;6295;49.452;8.466;2022-07-29T18:33:16;27.30;86.90
12460;DHT22;6295;49.452;8.466;2022-07-29T18:37:19;27.10;88.10
12460;DHT22;6295;49.452;8.466;2022-07-29T18:49:28;26.70;90.90
12460;DHT22;6295;49.452;8.466;2022-07-29T18:53:30;26.60;91.40
12460;DHT22;6295;49.452;8.466;2022-07-29T18:57:33;26.50;92.00
12460;DHT22;6295;49.452;8.466;2022-07-29T19:01:36;26.40;92.30
12460;DHT22;6295;49.452;8.466;2022-07-29T19:17:49;25.90;94.20
12460;DHT22;6295;49.452;8.466;2022-07-29T19:21:51;25.80;94.70
12460;DHT22;6295;49.452;8.466;2022-07-29T19:25:54;25.70;95.00
12460;DHT22;6295;49.452;8.466;2022-07-29T19:29:57;25.50;95.50
12460;DHT22;6295;49.452;8.466;2022-07-29T19:33:59;25.40;96.00
12460;DHT22;6295;49.452;8.466;2022-07-29T19:38:01;25.30;96.40
12460;DHT22;6295;49.452;8.466;2022-07-29T19:42:04;25.20;96.50
12460;DHT22;6295;49.452;8.466;2022-07-29T19:46:09;25.20;96.80
12460;DHT22;6295;49.452;8.466;2022-07-29T19:50:11;25.10;97.10
12460;DHT22;6295;49.452;8.466;2022-07-29T19:58:17;24.80;97.30
12460;DHT22;6295;49.452;8.466;2022-07-29T20:02:21;24.80;97.50
12460;DHT22;6295;49.452;8.466;2022-07-29T20:06:23;24.80;97.60
12460;DHT22;6295;49.452;8.466;2022-07-29T20:18:32;24.50;98.20
12460;DHT22;6295;49.452;8.466;2022-07-29T20:22:35;24.40;98.40
12460;DHT22;6295;49.452;8.466;2022-07-29T20:26:39;24.30;98.70
12460;DHT22;6295;49.452;8.466;2022-07-29T20:30:41;24.30;98.70
12460;DHT22;6295;49.452;8.466;2022-07-29T20:34:45;24.20;98.80
12460;DHT22;6295;49.452;8.466;2022-07-29T20:38:47;24.10;98.90
12460;DHT22;6295;49.452;8.466;2022-07-29T20:42:49;24.10;98.90
12460;DHT22;6295;49.452;8.466;2022-07-29T20:46:52;24.10;99.30
12460;DHT22;6295;49.452;8.466;2022-07-29T20:50:56;24.10;99.90
12460;DHT22;6295;49.452;8.466;2022-07-29T20:59:01;24.00;99.90
12460;DHT22;6295;49.452;8.466;2022-07-29T21:03:03;23.90;99.90
12460;DHT22;6295;49.452;8.466;2022-07-29T21:07:06;23.90;99.70
12460;DHT22;6295;49.452;8.466;2022-07-29T21:11:09;23.80;99.40
12460;DHT22;6295;49.452;8.466;2022-07-29T21:19:15;23.70;99.60
12460;DHT22;6295;49.452;8.466;2022-07-29T21:23:19;23.60;99.80
12460;DHT22;6295;49.452;8.466;2022-07-29T21:35:43;23.30;99.90
12460;DHT22;6295;49.452;8.466;2022-07-29T21:43:50;23.10;99.90
12460;DHT22;6295;49.452;8.466;2022-07-29T21:47:53;23.10;99.90
12460;DHT22;6295;49.452;8.466;2022-07-29T21:51:55;23.00;99.90
12460;DHT22;6295;49.452;8.466;2022-07-29T21:55:58;23.00;99.90
12460;DHT22;6295;49.452;8.466;2022-07-29T22:00:01;23.00;99.90
12460;DHT22;6295;49.452;8.466;2022-07-29T22:04:03;22.90;99.90
12460;DHT22;6295;49.452;8.466;2022-07-29T22:08:05;22.80;99.90
12460;DHT22;6295;49.452;8.466;2022-07-29T22:20:15;22.50;99.90
12460;DHT22;6295;49.452;8.466;2022-07-29T22:24:17;22.40;99.90
12460;DHT22;6295;49.452;8.466;2022-07-29T22:28:20;22.40;99.90
12460;DHT22;6295;49.452;8.466;2022-07-29T22:32:22;22.30;99.90
12460;DHT22;6295;49.452;8.466;2022-07-29T22:36:25;23.60;99.90
12460;DHT22;6295;49.452;8.466;2022-07-29T22:40:27;22.20;99.90
12460;DHT22;6295;49.452;8.466;2022-07-29T22:44:30;22.10;99.90
12460;DHT22;6295;49.452;8.466;2022-07-29T22:48:33;22.00;99.90
12460;DHT22;6295;49.452;8.466;2022-07-29T22:52:35;22.00;99.90
12460;DHT22;6295;49.452;8.466;2022-07-29T23:13:37;21.80;99.90
12460;DHT22;6295;49.452;8.466;2022-07-29T23:17:39;21.70;99.90
12460;DHT22;6295;49.452;8.466;2022-07-29T23:21:41;21.60;99.90
12460;DHT22;6295;49.452;8.466;2022-07-29T23:25:43;21.60;99.90
12460;DHT22;6295;49.452;8.466;2022-07-29T23:33:49;21.70;99.90
12460;DHT22;6295;49.452;8.466;2022-07-29T23:37:51;21.70;99.90
12460;DHT22;6295;49.452;8.466;2022-07-29T23:41:53;21.70;99.90
12460;DHT22;6295;49.452;8.466;2022-07-29T23:45:56;21.70;99.90
12460;DHT22;6295;49.452;8.466;2022-07-29T23:54:01;21.70;99.90
12460;DHT22;6295;49.452;8.466;2022-07-29T23:58:03;21.70;99.90
